Stone Harbor, New Jersey
Current Conditions -  °F | °C
As of 9:35 PM on Wednesday 26 Nov 2014 (Local Time) from KWWD Reporting Station
Overcast Overcast  
Wind Chill:   Ceiling: 2400
Heat Index:   Visibility: 10mi
Dew Point:   Wind: 9mph
Humidity: 75%   Direction: 330°NNW
Pressure: 29.85"   Gusts: 17mph
Location:  39.05°N, 74.76°W
Report Text: KWWD 270235Z AUTO 33008G15KT 300V360 10SM SCT012 BKN024 OVC035 04/00 A2985 RMK AO1
Loading
Personal Weather Stations






























Interactive Weather Map New forecast layout! Learn more

10-Day Weather Forecast

Advertisements
Track Severe Weather on mobile